Mount Crawford, VA (22841)

7:55 AM EDT on June 03, 2015 (GMT -0400)
Bridgewater, Virginia | | Change Station
CLOSE
Current Station
Personal Weather Station
Location: Bridgewater, VA
Elevation: 1175 ft
Nearby Weather Stations

Elev 1175 ft 38.36 °N, 78.96 °W | Updated 8 minutes ago

Overcast
Overcast
56.3 °F
Feels Like 56.3 °F
N
6.0
Wind Variable Wind from NNE
Gusts 10.0 mph

Today
High -- | Low -- °F
--% Chance of Precip.
Yesterday
High -- | Low -- °F
Precip. -- in
5:53 AM 8:34 PM
Full, 99% visible
Pressure 30.16 in
Visibility 3.0 miles
Clouds Overcast 600 ft
Dew Point 55 °F
Humidity 94%
Rainfall 0.00 in
Snow Depth Not available.
UV 0 out of 12
Pollen 3.00 out of 12
Air Quality Not available.
Flu Activity Sporadic
METAR KSHD 031135Z AUTO 03005KT 3SM BR OVC006 15/14 A3016 RMK AO2 T01460135

More Conditions Fewer Conditions

Pressure 30.16 in
Visibility 3.0 miles
Clouds Overcast 600 ft
Dew Point 55 °F
Humidity 94%
Rainfall 0.00 in
Snow Depth Not available.
UV 0 out of 12
Pollen 3.00 out of 12
Air Quality Not available.
Flu Activity Sporadic
METAR KSHD 031135Z AUTO 03005KT 3SM BR OVC006 15/14 A3016 RMK AO2 T01460135

More Conditions Fewer Conditions

10-Day Weather Forecast

×

Almanac

Astronomy

Jun. 03, 2015 Rise Set
Actual Time
Civil Twilight
Nautical Twilight
Astronomical Twilight
Moon
Length of Visible Light
Length of Day
Tomorrow will be .
, % of the Moon is Illuminated

Today's Extremes

State Highs State Lows

Community

WunderPhotos

Upload Photos

1,826,205 photos uploaded!

WunderBlogs® & News

Nearby

Air Quality

  Air Quality AQ Index Pollutant
Not available.

Snow Depth

Station Depth Elevation

Earthquake Activity

City Distance Mag. Time & Date
Minimum magnitude displayed is 2.5.

Coastal Water Temperatures

Place Temperature

Stations

Nearby Weather Stations

Station Location Temp. Windchill Dew Point Humidity Wind Precip. Elev Updated Type